sensor_id;sensor_type;location;lat;lon;timestamp;P1;P2;P0
47982;PMS5003;33751;50.816;-1.214;2023-04-01T00:01:02;15;12;
47982;PMS5003;33751;50.816;-1.214;2023-04-01T00:03:31;16;14;
47982;PMS5003;33751;50.816;-1.214;2023-04-01T00:05:59;17;13;
47982;PMS5003;33751;50.816;-1.214;2023-04-01T00:08:26;10;10;
47982;PMS5003;33751;50.816;-1.214;2023-04-01T00:10:53;16;11;
47982;PMS5003;33751;50.816;-1.214;2023-04-01T00:13:21;10;9;
47982;PMS5003;33751;50.816;-1.214;2023-04-01T00:15:48;10;10;
47982;PMS5003;33751;50.816;-1.214;2023-04-01T00:18:15;10;8;
47982;PMS5003;33751;50.816;-1.214;2023-04-01T00:20:43;15;9;
47982;PMS5003;33751;50.816;-1.214;2023-04-01T00:23:12;12;11;
47982;PMS5003;33751;50.816;-1.214;2023-04-01T00:25:39;10;9;
47982;PMS5003;33751;50.816;-1.214;2023-04-01T00:28:06;10;10;
47982;PMS5003;33751;50.816;-1.214;2023-04-01T00:30:33;9;9;
47982;PMS5003;33751;50.816;-1.214;2023-04-01T00:32:59;10;9;
47982;PMS5003;33751;50.816;-1.214;2023-04-01T00:35:26;7;7;
47982;PMS5003;33751;50.816;-1.214;2023-04-01T00:37:53;8;8;
47982;PMS5003;33751;50.816;-1.214;2023-04-01T00:40:25;8;8;
47982;PMS5003;33751;50.816;-1.214;2023-04-01T00:42:54;7;7;
47982;PMS5003;33751;50.816;-1.214;2023-04-01T00:45:23;8;8;
47982;PMS5003;33751;50.816;-1.214;2023-04-01T00:47:54;6;6;
47982;PMS5003;33751;50.816;-1.214;2023-04-01T00:50:22;7;7;
47982;PMS5003;33751;50.816;-1.214;2023-04-01T00:52:52;8;7;
47982;PMS5003;33751;50.816;-1.214;2023-04-01T00:55:19;14;9;
47982;PMS5003;33751;50.816;-1.214;2023-04-01T00:57:49;7;7;
47982;PMS5003;33751;50.816;-1.214;2023-04-01T01:00:19;9;6;
47982;PMS5003;33751;50.816;-1.214;2023-04-01T01:02:47;11;10;
47982;PMS5003;33751;50.816;-1.214;2023-04-01T01:05:17;8;8;
47982;PMS5003;33751;50.816;-1.214;2023-04-01T01:07:52;8;7;
47982;PMS5003;33751;50.816;-1.214;2023-04-01T01:10:29;9;7;
47982;PMS5003;33751;50.816;-1.214;2023-04-01T01:12:59;8;8;
47982;PMS5003;33751;50.816;-1.214;2023-04-01T01:15:37;7;7;
47982;PMS5003;33751;50.816;-1.214;2023-04-01T01:18:13;5;5;
47982;PMS5003;33751;50.816;-1.214;2023-04-01T01:21:23;6;6;
47982;PMS5003;33751;50.816;-1.214;2023-04-01T01:24:13;5;5;
47982;PMS5003;33751;50.816;-1.214;2023-04-01T01:26:53;8;8;
47982;PMS5003;33751;50.816;-1.214;2023-04-01T01:29:38;7;7;
47982;PMS5003;33751;50.816;-1.214;2023-04-01T01:32:30;5;5;
47982;PMS5003;33751;50.816;-1.214;2023-04-01T01:35:13;7;6;
47982;PMS5003;33751;50.816;-1.214;2023-04-01T01:37:47;5;5;
47982;PMS5003;33751;50.816;-1.214;2023-04-01T01:40:18;8;8;
47982;PMS5003;33751;50.816;-1.214;2023-04-01T01:42:48;4;4;
47982;PMS5003;33751;50.816;-1.214;2023-04-01T01:45:19;4;4;
47982;PMS5003;33751;50.816;-1.214;2023-04-01T01:47:50;8;6;
47982;PMS5003;33751;50.816;-1.214;2023-04-01T01:50:18;7;6;
47982;PMS5003;33751;50.816;-1.214;2023-04-01T01:52:47;10;7;
47982;PMS5003;33751;50.816;-1.214;2023-04-01T01:55:30;5;5;
47982;PMS5003;33751;50.816;-1.214;2023-04-01T01:58:00;4;4;
47982;PMS5003;33751;50.816;-1.214;2023-04-01T02:00:32;8;5;
47982;PMS5003;33751;50.816;-1.214;2023-04-01T02:03:00;4;4;
47982;PMS5003;33751;50.816;-1.214;2023-04-01T02:05:27;6;4;
47982;PMS5003;33751;50.816;-1.214;2023-04-01T02:07:57;6;6;
47982;PMS5003;33751;50.816;-1.214;2023-04-01T02:10:30;4;4;
47982;PMS5003;33751;50.816;-1.214;2023-04-01T02:13:01;4;4;
47982;PMS5003;33751;50.816;-1.214;2023-04-01T02:15:33;5;5;
47982;PMS5003;33751;50.816;-1.214;2023-04-01T02:18:07;5;4;
47982;PMS5003;33751;50.816;-1.214;2023-04-01T02:20:35;4;4;
47982;PMS5003;33751;50.816;-1.214;2023-04-01T02:23:04;2;2;
47982;PMS5003;33751;50.816;-1.214;2023-04-01T02:25:33;7;4;
47982;PMS5003;33751;50.816;-1.214;2023-04-01T02:28:01;5;5;
47982;PMS5003;33751;50.816;-1.214;2023-04-01T02:30:31;4;4;
47982;PMS5003;33751;50.816;-1.214;2023-04-01T02:33:01;3;3;
47982;PMS5003;33751;50.816;-1.214;2023-04-01T02:35:29;7;5;
47982;PMS5003;33751;50.816;-1.214;2023-04-01T02:37:56;5;5;
47982;PMS5003;33751;50.816;-1.214;2023-04-01T02:40:23;4;4;
47982;PMS5003;33751;50.816;-1.214;2023-04-01T02:42:50;3;3;
47982;PMS5003;33751;50.816;-1.214;2023-04-01T02:45:17;3;3;
47982;PMS5003;33751;50.816;-1.214;2023-04-01T02:47:45;3;3;
47982;PMS5003;33751;50.816;-1.214;2023-04-01T02:50:11;3;3;
47982;PMS5003;33751;50.816;-1.214;2023-04-01T02:52:38;4;4;
47982;PMS5003;33751;50.816;-1.214;2023-04-01T02:55:05;3;3;
47982;PMS5003;33751;50.816;-1.214;2023-04-01T02:57:32;4;4;
47982;PMS5003;33751;50.816;-1.214;2023-04-01T02:59:59;3;3;
47982;PMS5003;33751;50.816;-1.214;2023-04-01T03:02:26;4;2;
47982;PMS5003;33751;50.816;-1.214;2023-04-01T03:04:53;5;5;
47982;PMS5003;33751;50.816;-1.214;2023-04-01T03:07:20;3;3;
47982;PMS5003;33751;50.816;-1.214;2023-04-01T03:09:46;3;3;
47982;PMS5003;33751;50.816;-1.214;2023-04-01T03:12:13;6;2;
47982;PMS5003;33751;50.816;-1.214;2023-04-01T03:14:39;4;3;
47982;PMS5003;33751;50.816;-1.214;2023-04-01T03:17:06;3;3;
47982;PMS5003;33751;50.816;-1.214;2023-04-01T03:19:32;4;3;
47982;PMS5003;33751;50.816;-1.214;2023-04-01T03:21:58;4;4;
47982;PMS5003;33751;50.816;-1.214;2023-04-01T03:24:25;4;4;
47982;PMS5003;33751;50.816;-1.214;2023-04-01T03:26:51;2;2;
47982;PMS5003;33751;50.816;-1.214;2023-04-01T03:29:18;2;2;
47982;PMS5003;33751;50.816;-1.214;2023-04-01T03:31:45;2;2;
47982;PMS5003;33751;50.816;-1.214;2023-04-01T03:34:12;2;2;
47982;PMS5003;33751;50.816;-1.214;2023-04-01T03:36:39;5;1;
47982;PMS5003;33751;50.816;-1.214;2023-04-01T03:39:05;3;3;
47982;PMS5003;33751;50.816;-1.214;2023-04-01T03:41:32;2;2;
47982;PMS5003;33751;50.816;-1.214;2023-04-01T03:44:03;1;1;
47982;PMS5003;33751;50.816;-1.214;2023-04-01T03:46:29;2;2;
47982;PMS5003;33751;50.816;-1.214;2023-04-01T03:48:57;2;2;
47982;PMS5003;33751;50.816;-1.214;2023-04-01T03:51:23;1;1;
47982;PMS5003;33751;50.816;-1.214;2023-04-01T03:53:50;0;0;
47982;PMS5003;33751;50.816;-1.214;2023-04-01T03:56:17;4;2;
47982;PMS5003;33751;50.816;-1.214;2023-04-01T03:58:45;3;3;
47982;PMS5003;33751;50.816;-1.214;2023-04-01T04:01:13;3;3;
47982;PMS5003;33751;50.816;-1.214;2023-04-01T04:03:40;4;2;
47982;PMS5003;33751;50.816;-1.214;2023-04-01T04:06:10;3;3;
47982;PMS5003;33751;50.816;-1.214;2023-04-01T04:08:38;2;2;
47982;PMS5003;33751;50.816;-1.214;2023-04-01T04:11:05;4;3;
47982;PMS5003;33751;50.816;-1.214;2023-04-01T04:13:32;2;2;
47982;PMS5003;33751;50.816;-1.214;2023-04-01T04:15:59;0;0;
47982;PMS5003;33751;50.816;-1.214;2023-04-01T04:18:25;0;0;
47982;PMS5003;33751;50.816;-1.214;2023-04-01T04:20:52;2;2;
47982;PMS5003;33751;50.816;-1.214;2023-04-01T04:23:18;1;1;
47982;PMS5003;33751;50.816;-1.214;2023-04-01T04:25:53;2;2;
47982;PMS5003;33751;50.816;-1.214;2023-04-01T04:28:21;2;2;
47982;PMS5003;33751;50.816;-1.214;2023-04-01T04:30:48;1;1;
47982;PMS5003;33751;50.816;-1.214;2023-04-01T04:33:15;2;2;
47982;PMS5003;33751;50.816;-1.214;2023-04-01T04:35:43;2;2;
47982;PMS5003;33751;50.816;-1.214;2023-04-01T04:38:10;3;2;
47982;PMS5003;33751;50.816;-1.214;2023-04-01T04:40:37;3;3;
47982;PMS5003;33751;50.816;-1.214;2023-04-01T04:43:05;0;0;
47982;PMS5003;33751;50.816;-1.214;2023-04-01T04:45:32;4;2;
47982;PMS5003;33751;50.816;-1.214;2023-04-01T04:47:58;0;0;
47982;PMS5003;33751;50.816;-1.214;2023-04-01T04:50:25;0;0;
47982;PMS5003;33751;50.816;-1.214;2023-04-01T04:52:52;0;0;
47982;PMS5003;33751;50.816;-1.214;2023-04-01T04:55:19;1;1;
47982;PMS5003;33751;50.816;-1.214;2023-04-01T04:57:46;4;3;
47982;PMS5003;33751;50.816;-1.214;2023-04-01T05:00:13;2;2;
47982;PMS5003;33751;50.816;-1.214;2023-04-01T05:02:40;1;0;
47982;PMS5003;33751;50.816;-1.214;2023-04-01T05:05:07;2;2;
47982;PMS5003;33751;50.816;-1.214;2023-04-01T05:07:34;3;1;
47982;PMS5003;33751;50.816;-1.214;2023-04-01T05:10:01;1;1;
47982;PMS5003;33751;50.816;-1.214;2023-04-01T05:12:28;1;1;
47982;PMS5003;33751;50.816;-1.214;2023-04-01T05:14:55;2;2;
47982;PMS5003;33751;50.816;-1.214;2023-04-01T05:17:22;2;2;
47982;PMS5003;33751;50.816;-1.214;2023-04-01T05:19:48;1;1;
47982;PMS5003;33751;50.816;-1.214;2023-04-01T05:22:15;1;1;
47982;PMS5003;33751;50.816;-1.214;2023-04-01T05:24:41;2;2;
47982;PMS5003;33751;50.816;-1.214;2023-04-01T05:27:08;1;1;
47982;PMS5003;33751;50.816;-1.214;2023-04-01T05:29:34;0;0;
47982;PMS5003;33751;50.816;-1.214;2023-04-01T05:32:01;2;2;
47982;PMS5003;33751;50.816;-1.214;2023-04-01T05:34:27;1;1;
47982;PMS5003;33751;50.816;-1.214;2023-04-01T05:36:54;1;1;
47982;PMS5003;33751;50.816;-1.214;2023-04-01T05:39:20;1;1;
47982;PMS5003;33751;50.816;-1.214;2023-04-01T05:41:47;1;1;
47982;PMS5003;33751;50.816;-1.214;2023-04-01T05:44:13;1;1;
47982;PMS5003;33751;50.816;-1.214;2023-04-01T05:46:40;1;1;
47982;PMS5003;33751;50.816;-1.214;2023-04-01T05:49:07;0;0;
47982;PMS5003;33751;50.816;-1.214;2023-04-01T05:51:35;0;0;
47982;PMS5003;33751;50.816;-1.214;2023-04-01T05:54:01;0;0;
47982;PMS5003;33751;50.816;-1.214;2023-04-01T05:56:29;2;1;
47982;PMS5003;33751;50.816;-1.214;2023-04-01T05:58:56;1;1;
47982;PMS5003;33751;50.816;-1.214;2023-04-01T06:01:22;1;1;
47982;PMS5003;33751;50.816;-1.214;2023-04-01T06:03:50;2;1;
47982;PMS5003;33751;50.816;-1.214;2023-04-01T06:06:19;2;2;
47982;PMS5003;33751;50.816;-1.214;2023-04-01T06:08:49;0;0;
47982;PMS5003;33751;50.816;-1.214;2023-04-01T06:11:20;2;2;
47982;PMS5003;33751;50.816;-1.214;2023-04-01T06:14:00;0;0;
47982;PMS5003;33751;50.816;-1.214;2023-04-01T06:16:39;0;0;
47982;PMS5003;33751;50.816;-1.214;2023-04-01T06:19:22;1;1;
47982;PMS5003;33751;50.816;-1.214;2023-04-01T06:22:02;0;0;
47982;PMS5003;33751;50.816;-1.214;2023-04-01T06:24:48;1;1;
47982;PMS5003;33751;50.816;-1.214;2023-04-01T06:27:30;1;1;
47982;PMS5003;33751;50.816;-1.214;2023-04-01T06:30:13;1;1;
47982;PMS5003;33751;50.816;-1.214;2023-04-01T06:32:59;1;1;
47982;PMS5003;33751;50.816;-1.214;2023-04-01T06:35:43;2;2;
47982;PMS5003;33751;50.816;-1.214;2023-04-01T06:38:40;3;3;
47982;PMS5003;33751;50.816;-1.214;2023-04-01T06:41:21;3;3;
47982;PMS5003;33751;50.816;-1.214;2023-04-01T06:43:59;4;1;
47982;PMS5003;33751;50.816;-1.214;2023-04-01T06:46:40;1;1;
47982;PMS5003;33751;50.816;-1.214;2023-04-01T06:49:17;2;2;
47982;PMS5003;33751;50.816;-1.214;2023-04-01T06:52:10;1;1;
47982;PMS5003;33751;50.816;-1.214;2023-04-01T06:54:47;2;2;
47982;PMS5003;33751;50.816;-1.214;2023-04-01T06:57:20;2;2;
47982;PMS5003;33751;50.816;-1.214;2023-04-01T06:59:55;0;0;
47982;PMS5003;33751;50.816;-1.214;2023-04-01T07:02:28;2;2;
47982;PMS5003;33751;50.816;-1.214;2023-04-01T07:05:02;1;1;
47982;PMS5003;33751;50.816;-1.214;2023-04-01T07:07:33;2;1;
47982;PMS5003;33751;50.816;-1.214;2023-04-01T07:10:05;0;0;
47982;PMS5003;33751;50.816;-1.214;2023-04-01T07:12:40;3;3;
47982;PMS5003;33751;50.816;-1.214;2023-04-01T07:15:15;2;2;
47982;PMS5003;33751;50.816;-1.214;2023-04-01T07:17:46;1;1;
47982;PMS5003;33751;50.816;-1.214;2023-04-01T07:20:20;0;0;
47982;PMS5003;33751;50.816;-1.214;2023-04-01T07:22:51;2;2;
47982;PMS5003;33751;50.816;-1.214;2023-04-01T07:25:22;1;0;
47982;PMS5003;33751;50.816;-1.214;2023-04-01T07:27:52;1;1;
47982;PMS5003;33751;50.816;-1.214;2023-04-01T07:30:23;2;1;
47982;PMS5003;33751;50.816;-1.214;2023-04-01T07:32:55;2;2;
47982;PMS5003;33751;50.816;-1.214;2023-04-01T07:35:31;1;1;
47982;PMS5003;33751;50.816;-1.214;2023-04-01T07:38:09;2;1;
47982;PMS5003;33751;50.816;-1.214;2023-04-01T07:40:47;0;0;
47982;PMS5003;33751;50.816;-1.214;2023-04-01T07:43:23;1;1;
47982;PMS5003;33751;50.816;-1.214;2023-04-01T07:46:06;0;0;
47982;PMS5003;33751;50.816;-1.214;2023-04-01T07:48:42;1;1;
47982;PMS5003;33751;50.816;-1.214;2023-04-01T07:51:15;2;1;
47982;PMS5003;33751;50.816;-1.214;2023-04-01T07:53:48;3;3;
47982;PMS5003;33751;50.816;-1.214;2023-04-01T07:56:25;0;0;
47982;PMS5003;33751;50.816;-1.214;2023-04-01T07:59:00;4;2;
47982;PMS5003;33751;50.816;-1.214;2023-04-01T08:01:36;2;2;
47982;PMS5003;33751;50.816;-1.214;2023-04-01T08:04:14;2;2;
47982;PMS5003;33751;50.816;-1.214;2023-04-01T08:06:51;2;2;
47982;PMS5003;33751;50.816;-1.214;2023-04-01T08:09:26;3;3;
47982;PMS5003;33751;50.816;-1.214;2023-04-01T08:12:06;2;2;
47982;PMS5003;33751;50.816;-1.214;2023-04-01T08:14:43;3;3;
47982;PMS5003;33751;50.816;-1.214;2023-04-01T08:17:19;5;5;
47982;PMS5003;33751;50.816;-1.214;2023-04-01T08:19:58;3;2;
47982;PMS5003;33751;50.816;-1.214;2023-04-01T08:22:38;3;3;
47982;PMS5003;33751;50.816;-1.214;2023-04-01T08:25:09;2;2;
47982;PMS5003;33751;50.816;-1.214;2023-04-01T08:27:44;3;3;
47982;PMS5003;33751;50.816;-1.214;2023-04-01T08:30:16;3;3;
47982;PMS5003;33751;50.816;-1.214;2023-04-01T08:32:47;2;2;
47982;PMS5003;33751;50.816;-1.214;2023-04-01T08:35:20;2;2;
47982;PMS5003;33751;50.816;-1.214;2023-04-01T08:37:54;1;1;
47982;PMS5003;33751;50.816;-1.214;2023-04-01T08:40:51;3;2;
47982;PMS5003;33751;50.816;-1.214;2023-04-01T08:43:25;1;1;
47982;PMS5003;33751;50.816;-1.214;2023-04-01T08:46:16;7;5;
47982;PMS5003;33751;50.816;-1.214;2023-04-01T08:48:58;4;4;
47982;PMS5003;33751;50.816;-1.214;2023-04-01T08:51:43;2;2;
47982;PMS5003;33751;50.816;-1.214;2023-04-01T08:54:28;2;2;
47982;PMS5003;33751;50.816;-1.214;2023-04-01T08:57:08;5;4;
47982;PMS5003;33751;50.816;-1.214;2023-04-01T08:59:50;2;2;
47982;PMS5003;33751;50.816;-1.214;2023-04-01T09:02:37;4;2;
47982;PMS5003;33751;50.816;-1.214;2023-04-01T09:05:20;4;3;
47982;PMS5003;33751;50.816;-1.214;2023-04-01T09:08:02;4;4;
47982;PMS5003;33751;50.816;-1.214;2023-04-01T09:11:17;1;1;
47982;PMS5003;33751;50.816;-1.214;2023-04-01T09:13:59;6;6;
47982;PMS5003;33751;50.816;-1.214;2023-04-01T09:17:04;10;10;
47982;PMS5003;33751;50.816;-1.214;2023-04-01T09:19:51;10;9;
47982;PMS5003;33751;50.816;-1.214;2023-04-01T09:22:36;10;10;
47982;PMS5003;33751;50.816;-1.214;2023-04-01T09:25:18;8;8;
47982;PMS5003;33751;50.816;-1.214;2023-04-01T09:27:55;10;9;
47982;PMS5003;33751;50.816;-1.214;2023-04-01T09:30:28;9;6;
47982;PMS5003;33751;50.816;-1.214;2023-04-01T09:33:07;9;9;
47982;PMS5003;33751;50.816;-1.214;2023-04-01T09:35:46;4;4;
47982;PMS5003;33751;50.816;-1.214;2023-04-01T09:38:19;8;7;
47982;PMS5003;33751;50.816;-1.214;2023-04-01T09:40:54;8;8;
47982;PMS5003;33751;50.816;-1.214;2023-04-01T09:43:25;7;7;
47982;PMS5003;33751;50.816;-1.214;2023-04-01T09:46:00;5;5;
47982;PMS5003;33751;50.816;-1.214;2023-04-01T09:48:42;5;5;
47982;PMS5003;33751;50.816;-1.214;2023-04-01T09:51:23;5;5;
47982;PMS5003;33751;50.816;-1.214;2023-04-01T09:54:01;6;6;
47982;PMS5003;33751;50.816;-1.214;2023-04-01T09:57:18;3;3;
47982;PMS5003;33751;50.816;-1.214;2023-04-01T10:00:06;5;5;
47982;PMS5003;33751;50.816;-1.214;2023-04-01T10:03:19;5;5;
47982;PMS5003;33751;50.816;-1.214;2023-04-01T10:04:06;5;5;
47982;PMS5003;33751;50.816;-1.214;2023-04-01T10:06:58;5;4;
47982;PMS5003;33751;50.816;-1.214;2023-04-01T10:10:24;5;2;
47982;PMS5003;33751;50.816;-1.214;2023-04-01T10:13:12;3;3;
47982;PMS5003;33751;50.816;-1.214;2023-04-01T10:16:01;2;2;
47982;PMS5003;33751;50.816;-1.214;2023-04-01T10:19:48;3;3;
47982;PMS5003;33751;50.816;-1.214;2023-04-01T10:22:31;3;2;
47982;PMS5003;33751;50.816;-1.214;2023-04-01T10:25:14;1;1;
47982;PMS5003;33751;50.816;-1.214;2023-04-01T10:28:03;2;2;
47982;PMS5003;33751;50.816;-1.214;2023-04-01T10:30:53;2;2;
47982;PMS5003;33751;50.816;-1.214;2023-04-01T10:34:17;3;3;
47982;PMS5003;33751;50.816;-1.214;2023-04-01T10:37:10;4;4;
47982;PMS5003;33751;50.816;-1.214;2023-04-01T10:39:56;1;1;
47982;PMS5003;33751;50.816;-1.214;2023-04-01T10:42:45;2;2;
47982;PMS5003;33751;50.816;-1.214;2023-04-01T10:45:38;2;2;
47982;PMS5003;33751;50.816;-1.214;2023-04-01T10:48:30;2;2;
47982;PMS5003;33751;50.816;-1.214;2023-04-01T10:51:18;1;1;
47982;PMS5003;33751;50.816;-1.214;2023-04-01T10:54:47;1;1;
47982;PMS5003;33751;50.816;-1.214;2023-04-01T10:57:24;1;1;
47982;PMS5003;33751;50.816;-1.214;2023-04-01T11:00:23;3;3;
47982;PMS5003;33751;50.816;-1.214;2023-04-01T11:03:46;2;2;
47982;PMS5003;33751;50.816;-1.214;2023-04-01T11:04:37;2;2;
47982;PMS5003;33751;50.816;-1.214;2023-04-01T11:07:43;1;1;
47982;PMS5003;33751;50.816;-1.214;2023-04-01T11:10:44;2;2;
47982;PMS5003;33751;50.816;-1.214;2023-04-01T11:13:38;3;3;
47982;PMS5003;33751;50.816;-1.214;2023-04-01T11:16:33;3;3;
47982;PMS5003;33751;50.816;-1.214;2023-04-01T11:19:19;6;2;
47982;PMS5003;33751;50.816;-1.214;2023-04-01T11:22:17;6;2;
47982;PMS5003;33751;50.816;-1.214;2023-04-01T11:25:05;2;2;
47982;PMS5003;33751;50.816;-1.214;2023-04-01T11:27:50;1;1;
47982;PMS5003;33751;50.816;-1.214;2023-04-01T11:30:33;2;2;
47982;PMS5003;33751;50.816;-1.214;2023-04-01T11:33:12;2;2;
47982;PMS5003;33751;50.816;-1.214;2023-04-01T11:35:56;1;1;
47982;PMS5003;33751;50.816;-1.214;2023-04-01T11:38:38;2;2;
47982;PMS5003;33751;50.816;-1.214;2023-04-01T11:41:20;5;3;
47982;PMS5003;33751;50.816;-1.214;2023-04-01T11:44:02;2;2;
47982;PMS5003;33751;50.816;-1.214;2023-04-01T11:46:44;1;1;
47982;PMS5003;33751;50.816;-1.214;2023-04-01T11:49:23;3;3;
47982;PMS5003;33751;50.816;-1.214;2023-04-01T11:52:02;0;0;
47982;PMS5003;33751;50.816;-1.214;2023-04-01T11:54:43;0;0;
47982;PMS5003;33751;50.816;-1.214;2023-04-01T11:57:33;1;1;
47982;PMS5003;33751;50.816;-1.214;2023-04-01T12:00:15;1;1;
47982;PMS5003;33751;50.816;-1.214;2023-04-01T12:03:05;4;1;
47982;PMS5003;33751;50.816;-1.214;2023-04-01T12:05:43;2;2;
47982;PMS5003;33751;50.816;-1.214;2023-04-01T12:08:21;2;1;
47982;PMS5003;33751;50.816;-1.214;2023-04-01T12:10:59;1;1;
47982;PMS5003;33751;50.816;-1.214;2023-04-01T12:13:36;2;2;
47982;PMS5003;33751;50.816;-1.214;2023-04-01T12:16:13;3;3;
47982;PMS5003;33751;50.816;-1.214;2023-04-01T12:18:49;2;2;
47982;PMS5003;33751;50.816;-1.214;2023-04-01T12:21:25;2;2;
47982;PMS5003;33751;50.816;-1.214;2023-04-01T12:24:36;3;1;
47982;PMS5003;33751;50.816;-1.214;2023-04-01T12:27:15;3;3;
47982;PMS5003;33751;50.816;-1.214;2023-04-01T12:29:58;4;4;
47982;PMS5003;33751;50.816;-1.214;2023-04-01T12:32:38;5;5;
47982;PMS5003;33751;50.816;-1.214;2023-04-01T12:35:16;4;4;
47982;PMS5003;33751;50.816;-1.214;2023-04-01T12:37:51;4;4;
47982;PMS5003;33751;50.816;-1.214;2023-04-01T12:40:30;6;4;
47982;PMS5003;33751;50.816;-1.214;2023-04-01T12:43:17;5;5;
47982;PMS5003;33751;50.816;-1.214;2023-04-01T12:45:57;3;3;
47982;PMS5003;33751;50.816;-1.214;2023-04-01T12:48:42;4;4;
47982;PMS5003;33751;50.816;-1.214;2023-04-01T12:51:30;4;4;
47982;PMS5003;33751;50.816;-1.214;2023-04-01T12:54:13;5;5;
47982;PMS5003;33751;50.816;-1.214;2023-04-01T12:56:52;5;5;
47982;PMS5003;33751;50.816;-1.214;2023-04-01T12:59:54;4;4;
47982;PMS5003;33751;50.816;-1.214;2023-04-01T13:02:40;3;3;
47982;PMS5003;33751;50.816;-1.214;2023-04-01T13:05:26;3;3;
47982;PMS5003;33751;50.816;-1.214;2023-04-01T13:08:12;6;6;
47982;PMS5003;33751;50.816;-1.214;2023-04-01T13:10:58;5;4;
47982;PMS5003;33751;50.816;-1.214;2023-04-01T13:13:42;2;2;
47982;PMS5003;33751;50.816;-1.214;2023-04-01T13:16:24;3;3;
47982;PMS5003;33751;50.816;-1.214;2023-04-01T13:18:57;4;4;
47982;PMS5003;33751;50.816;-1.214;2023-04-01T13:21:32;3;3;
47982;PMS5003;33751;50.816;-1.214;2023-04-01T13:24:07;9;3;
47982;PMS5003;33751;50.816;-1.214;2023-04-01T13:26:49;6;4;
47982;PMS5003;33751;50.816;-1.214;2023-04-01T13:29:24;3;2;
47982;PMS5003;33751;50.816;-1.214;2023-04-01T13:32:18;1;1;
47982;PMS5003;33751;50.816;-1.214;2023-04-01T13:34:59;3;3;
47982;PMS5003;33751;50.816;-1.214;2023-04-01T13:37:43;3;3;
47982;PMS5003;33751;50.816;-1.214;2023-04-01T13:40:24;2;2;
47982;PMS5003;33751;50.816;-1.214;2023-04-01T13:43:00;3;3;
47982;PMS5003;33751;50.816;-1.214;2023-04-01T13:45:33;4;4;
47982;PMS5003;33751;50.816;-1.214;2023-04-01T13:48:16;1;1;
47982;PMS5003;33751;50.816;-1.214;2023-04-01T13:51:03;1;1;
47982;PMS5003;33751;50.816;-1.214;2023-04-01T13:53:56;2;2;
47982;PMS5003;33751;50.816;-1.214;2023-04-01T13:56:37;2;2;
47982;PMS5003;33751;50.816;-1.214;2023-04-01T13:59:21;1;1;
47982;PMS5003;33751;50.816;-1.214;2023-04-01T14:02:11;3;3;
47982;PMS5003;33751;50.816;-1.214;2023-04-01T14:04:53;1;1;
47982;PMS5003;33751;50.816;-1.214;2023-04-01T14:07:39;1;1;
47982;PMS5003;33751;50.816;-1.214;2023-04-01T14:10:18;2;2;
47982;PMS5003;33751;50.816;-1.214;2023-04-01T14:12:56;2;2;
47982;PMS5003;33751;50.816;-1.214;2023-04-01T14:15:31;1;1;
47982;PMS5003;33751;50.816;-1.214;2023-04-01T14:18:11;2;2;
47982;PMS5003;33751;50.816;-1.214;2023-04-01T14:20:51;2;2;
47982;PMS5003;33751;50.816;-1.214;2023-04-01T14:23:35;3;2;
47982;PMS5003;33751;50.816;-1.214;2023-04-01T14:26:16;2;2;
47982;PMS5003;33751;50.816;-1.214;2023-04-01T14:28:53;2;2;
47982;PMS5003;33751;50.816;-1.214;2023-04-01T14:31:34;1;1;
47982;PMS5003;33751;50.816;-1.214;2023-04-01T14:34:12;2;2;
47982;PMS5003;33751;50.816;-1.214;2023-04-01T14:36:52;1;1;
47982;PMS5003;33751;50.816;-1.214;2023-04-01T14:39:38;2;2;
47982;PMS5003;33751;50.816;-1.214;2023-04-01T14:42:21;3;3;
47982;PMS5003;33751;50.816;-1.214;2023-04-01T14:45:18;2;2;
47982;PMS5003;33751;50.816;-1.214;2023-04-01T14:47:54;1;1;
47982;PMS5003;33751;50.816;-1.214;2023-04-01T14:50:25;3;2;
47982;PMS5003;33751;50.816;-1.214;2023-04-01T14:52:58;1;1;
47982;PMS5003;33751;50.816;-1.214;2023-04-01T14:55:44;3;3;
47982;PMS5003;33751;50.816;-1.214;2023-04-01T14:58:16;2;2;
47982;PMS5003;33751;50.816;-1.214;2023-04-01T15:00:47;1;1;
47982;PMS5003;33751;50.816;-1.214;2023-04-01T15:03:23;2;2;
47982;PMS5003;33751;50.816;-1.214;2023-04-01T15:06:10;2;2;
47982;PMS5003;33751;50.816;-1.214;2023-04-01T15:08:58;3;1;
47982;PMS5003;33751;50.816;-1.214;2023-04-01T15:11:37;3;2;
47982;PMS5003;33751;50.816;-1.214;2023-04-01T15:14:19;2;2;
47982;PMS5003;33751;50.816;-1.214;2023-04-01T15:17:02;2;2;
47982;PMS5003;33751;50.816;-1.214;2023-04-01T15:19:54;2;2;
47982;PMS5003;33751;50.816;-1.214;2023-04-01T15:22:41;3;1;
47982;PMS5003;33751;50.816;-1.214;2023-04-01T15:25:27;1;1;
47982;PMS5003;33751;50.816;-1.214;2023-04-01T15:28:04;2;2;
47982;PMS5003;33751;50.816;-1.214;2023-04-01T15:30:44;1;1;
47982;PMS5003;33751;50.816;-1.214;2023-04-01T15:33:24;4;3;
47982;PMS5003;33751;50.816;-1.214;2023-04-01T15:36:07;0;0;
47982;PMS5003;33751;50.816;-1.214;2023-04-01T15:38:46;1;1;
47982;PMS5003;33751;50.816;-1.214;2023-04-01T15:41:20;1;1;
47982;PMS5003;33751;50.816;-1.214;2023-04-01T15:43:54;3;1;
47982;PMS5003;33751;50.816;-1.214;2023-04-01T15:46:24;1;1;
47982;PMS5003;33751;50.816;-1.214;2023-04-01T15:49:03;2;2;
47982;PMS5003;33751;50.816;-1.214;2023-04-01T15:51:40;2;2;
47982;PMS5003;33751;50.816;-1.214;2023-04-01T15:54:21;2;2;
47982;PMS5003;33751;50.816;-1.214;2023-04-01T15:56:59;2;2;
47982;PMS5003;33751;50.816;-1.214;2023-04-01T15:59:52;1;1;
47982;PMS5003;33751;50.816;-1.214;2023-04-01T16:02:29;2;2;
47982;PMS5003;33751;50.816;-1.214;2023-04-01T16:05:03;2;2;
47982;PMS5003;33751;50.816;-1.214;2023-04-01T16:07:42;3;3;
47982;PMS5003;33751;50.816;-1.214;2023-04-01T16:10:27;2;2;
47982;PMS5003;33751;50.816;-1.214;2023-04-01T16:13:04;1;1;
47982;PMS5003;33751;50.816;-1.214;2023-04-01T16:15:50;1;1;
47982;PMS5003;33751;50.816;-1.214;2023-04-01T16:18:30;2;2;
47982;PMS5003;33751;50.816;-1.214;2023-04-01T16:21:10;1;1;
47982;PMS5003;33751;50.816;-1.214;2023-04-01T16:23:48;2;2;
47982;PMS5003;33751;50.816;-1.214;2023-04-01T16:26:23;2;2;
47982;PMS5003;33751;50.816;-1.214;2023-04-01T16:28:57;1;1;
47982;PMS5003;33751;50.816;-1.214;2023-04-01T16:31:34;1;1;
47982;PMS5003;33751;50.816;-1.214;2023-04-01T16:34:07;3;3;
47982;PMS5003;33751;50.816;-1.214;2023-04-01T16:36:41;2;2;
47982;PMS5003;33751;50.816;-1.214;2023-04-01T16:39:33;4;4;
47982;PMS5003;33751;50.816;-1.214;2023-04-01T16:42:12;4;4;
47982;PMS5003;33751;50.816;-1.214;2023-04-01T16:44:48;4;4;
47982;PMS5003;33751;50.816;-1.214;2023-04-01T16:47:19;2;2;
47982;PMS5003;33751;50.816;-1.214;2023-04-01T16:49:50;2;2;
47982;PMS5003;33751;50.816;-1.214;2023-04-01T16:52:42;2;2;
47982;PMS5003;33751;50.816;-1.214;2023-04-01T16:55:20;2;2;
47982;PMS5003;33751;50.816;-1.214;2023-04-01T16:57:51;3;3;
47982;PMS5003;33751;50.816;-1.214;2023-04-01T17:00:24;2;2;
47982;PMS5003;33751;50.816;-1.214;2023-04-01T17:02:58;3;3;
47982;PMS5003;33751;50.816;-1.214;2023-04-01T17:05:37;3;2;
47982;PMS5003;33751;50.816;-1.214;2023-04-01T17:08:13;4;4;
47982;PMS5003;33751;50.816;-1.214;2023-04-01T17:10:53;5;3;
47982;PMS5003;33751;50.816;-1.214;2023-04-01T17:13:27;3;3;
47982;PMS5003;33751;50.816;-1.214;2023-04-01T17:16:04;3;3;
47982;PMS5003;33751;50.816;-1.214;2023-04-01T17:18:41;5;5;
47982;PMS5003;33751;50.816;-1.214;2023-04-01T17:21:18;5;4;
47982;PMS5003;33751;50.816;-1.214;2023-04-01T17:23:52;5;5;
47982;PMS5003;33751;50.816;-1.214;2023-04-01T17:26:27;3;3;
47982;PMS5003;33751;50.816;-1.214;2023-04-01T17:29:05;4;4;
47982;PMS5003;33751;50.816;-1.214;2023-04-01T17:31:44;2;2;
47982;PMS5003;33751;50.816;-1.214;2023-04-01T17:34:18;3;3;
47982;PMS5003;33751;50.816;-1.214;2023-04-01T17:37:00;4;3;